Time;durP1;ratioP1;P1;durP2;ratioP2;P2;SDS_P1;SDS_P2;PMS_P1;PMS_P2;Temp;Humidity;BMP_temperature;BMP_pressure;BME280_temperature;BME280_humidity;BME280_pressure;Samples;Min_cycle;Max_cycle;Signal;HPM_P1;HPM_P2
2021/11/05 00:00:34;;;;;;;;;21.75;19.75;;;;;;;;5041682;27;113795;-78
2021/11/05 00:02:59;;;;;;;;;16.50;13.00;;;;;;;;5046936;27;111907;-75
2021/11/05 00:05:26;;;;;;;;;16.50;14.50;;;;;;;;5042380;27;113319;-77
2021/11/05 00:07:51;;;;;;;;;18.25;15.00;;;;;;;;5042948;27;111757;-77
2021/11/05 00:10:17;;;;;;;;;15.25;14.50;;;;;;;;5042996;27;111816;-77
2021/11/05 00:12:43;;;;;;;;;21.25;18.00;;;;;;;;5023410;27;115582;-77
2021/11/05 00:15:09;;;;;;;;;18.75;16.00;;;;;;;;5042761;27;111960;-77
2021/11/05 00:17:34;;;;;;;;;22.50;21.00;;;;;;;;5042640;27;111947;-76
2021/11/05 00:19:59;;;;;;;;;18.25;17.75;;;;;;;;5041853;27;112516;-76
2021/11/05 00:22:24;;;;;;;;;17.50;15.75;;;;;;;;5043506;27;111953;-78
2021/11/05 00:24:50;;;;;;;;;14.50;14.00;;;;;;;;5046587;27;111788;-78
2021/11/05 00:27:15;;;;;;;;;16.00;13.50;;;;;;;;5043830;27;111938;-77
2021/11/05 00:29:43;;;;;;;;;12.00;11.00;;;;;;;;5043480;27;111851;-77
2021/11/05 00:32:09;;;;;;;;;11.75;9.50;;;;;;;;5041474;27;113854;-77
2021/11/05 00:34:35;;;;;;;;;8.00;8.00;;;;;;;;5044011;27;111952;-78
2021/11/05 00:37:00;;;;;;;;;9.50;8.00;;;;;;;;5043499;27;112175;-77
2021/11/05 00:39:25;;;;;;;;;7.75;7.75;;;;;;;;5042833;27;112434;-76
2021/11/05 00:41:50;;;;;;;;;7.75;5.00;;;;;;;;5043772;27;111850;-77
2021/11/05 00:44:16;;;;;;;;;10.75;8.00;;;;;;;;5043719;27;112434;-77
2021/11/05 00:46:41;;;;;;;;;11.25;8.00;;;;;;;;5045755;27;111768;-78
2021/11/05 00:49:06;;;;;;;;;11.25;8.00;;;;;;;;5043458;27;111692;-77
2021/11/05 00:51:31;;;;;;;;;8.00;7.00;;;;;;;;5042281;27;112876;-77
2021/11/05 00:53:57;;;;;;;;;11.00;8.00;;;;;;;;5043386;27;111900;-76
2021/11/05 00:56:22;;;;;;;;;7.00;4.75;;;;;;;;5043422;27;112436;-75
2021/11/05 00:58:47;;;;;;;;;9.50;6.50;;;;;;;;5042045;27;112818;-77
2021/11/05 01:01:13;;;;;;;;;6.00;5.00;;;;;;;;5042440;27;111767;-76
2021/11/05 01:03:38;;;;;;;;;8.75;4.00;;;;;;;;5043086;27;112019;-75
2021/11/05 01:06:03;;;;;;;;;7.50;4.75;;;;;;;;5045261;27;113964;-76
2021/11/05 01:08:29;;;;;;;;;8.25;4.00;;;;;;;;5043154;27;111755;-77
2021/11/05 01:10:54;;;;;;;;;6.00;4.75;;;;;;;;5041645;27;113591;-77
2021/11/05 01:13:20;;;;;;;;;7.00;5.00;;;;;;;;5043494;27;112069;-77
2021/11/05 01:15:45;;;;;;;;;6.50;5.00;;;;;;;;5043385;27;112264;-76
2021/11/05 01:18:11;;;;;;;;;5.00;5.00;;;;;;;;5042203;27;112485;-75
2021/11/05 01:20:36;;;;;;;;;3.50;3.50;;;;;;;;5043214;27;111893;-74
2021/11/05 01:23:02;;;;;;;;;5.50;5.50;;;;;;;;5042812;27;112038;-76
2021/11/05 01:25:27;;;;;;;;;10.75;5.00;;;;;;;;5023397;27;113659;-75
2021/11/05 01:27:52;;;;;;;;;8.75;5.50;;;;;;;;5046333;27;112793;-75
2021/11/05 01:30:18;;;;;;;;;5.50;4.25;;;;;;;;5041674;27;112321;-76
2021/11/05 01:32:44;;;;;;;;;5.50;5.50;;;;;;;;5042366;27;112203;-76
2021/11/05 01:35:10;;;;;;;;;8.00;6.00;;;;;;;;5043404;27;112234;-75
2021/11/05 01:37:35;;;;;;;;;7.75;5.00;;;;;;;;5041458;27;112515;-75
2021/11/05 01:40:00;;;;;;;;;7.75;5.00;;;;;;;;5043068;27;111901;-75
2021/11/05 01:42:26;;;;;;;;;8.00;8.00;;;;;;;;5024539;27;114816;-74
2021/11/05 01:44:51;;;;;;;;;5.25;5.25;;;;;;;;5041287;27;114037;-75
2021/11/05 01:47:19;;;;;;;;;12.75;8.50;;;;;;;;5042675;27;112150;-73
2021/11/05 01:49:45;;;;;;;;;8.00;7.00;;;;;;;;5045253;27;113106;-75
2021/11/05 01:52:11;;;;;;;;;4.25;3.50;;;;;;;;5042852;27;111693;-73
2021/11/05 01:54:36;;;;;;;;;2.50;0.00;;;;;;;;5042352;27;111888;-74
2021/11/05 01:57:01;;;;;;;;;8.25;4.00;;;;;;;;5041129;27;113798;-74
2021/11/05 01:59:28;;;;;;;;;7.00;7.00;;;;;;;;5042321;27;111979;-76
2021/11/05 02:01:54;;;;;;;;;7.00;4.00;;;;;;;;5024390;27;113134;-75
2021/11/05 02:04:19;;;;;;;;;6.50;4.25;;;;;;;;5041535;27;113183;-75
2021/11/05 02:06:45;;;;;;;;;5.50;5.50;;;;;;;;5042608;27;111813;-75
2021/11/05 02:09:13;;;;;;;;;8.00;8.00;;;;;;;;5042491;27;111941;-75
2021/11/05 02:11:38;;;;;;;;;5.00;4.75;;;;;;;;5044990;27;112522;-77
2021/11/05 02:14:05;;;;;;;;;8.00;6.50;;;;;;;;5042722;27;111993;-76
2021/11/05 02:16:31;;;;;;;;;9.50;7.75;;;;;;;;5040980;27;112952;-77
2021/11/05 02:18:56;;;;;;;;;7.25;6.50;;;;;;;;5041989;27;111891;-77
2021/11/05 02:21:23;;;;;;;;;6.25;5.00;;;;;;;;5041998;27;111858;-75
2021/11/05 02:23:48;;;;;;;;;4.75;4.75;;;;;;;;5041222;27;113691;-75
2021/11/05 02:26:13;;;;;;;;;11.50;7.25;;;;;;;;5041867;27;112116;-78
2021/11/05 02:28:39;;;;;;;;;7.00;4.00;;;;;;;;5042394;27;111749;-76
2021/11/05 02:31:05;;;;;;;;;7.00;4.50;;;;;;;;5041189;27;112368;-78
2021/11/05 02:33:30;;;;;;;;;7.50;5.00;;;;;;;;5045633;27;112303;-77
2021/11/05 02:35:56;;;;;;;;;4.25;4.00;;;;;;;;5040538;27;112266;-78
2021/11/05 02:38:21;;;;;;;;;6.00;6.00;;;;;;;;5041560;27;111910;-76
2021/11/05 02:40:46;;;;;;;;;5.00;5.00;;;;;;;;5041182;27;111803;-77
2021/11/05 02:43:12;;;;;;;;;6.25;5.00;;;;;;;;5040123;27;112337;-76
2021/11/05 02:45:45;;;;;;;;;5.50;5.50;;;;;;;;5040679;27;112143;-78
2021/11/05 02:48:11;;;;;;;;;8.00;5.00;;;;;;;;5041374;27;111918;-77
2021/11/05 02:50:36;;;;;;;;;5.00;5.00;;;;;;;;5039470;27;113431;-78
2021/11/05 02:53:02;;;;;;;;;3.50;1.00;;;;;;;;5044742;27;111868;-77
2021/11/05 02:55:27;;;;;;;;;8.00;8.00;;;;;;;;5022230;27;113705;-77
2021/11/05 02:57:53;;;;;;;;;7.00;7.00;;;;;;;;5042062;27;112819;-77
2021/11/05 03:00:18;;;;;;;;;13.75;9.00;;;;;;;;5041401;27;112900;-78
2021/11/05 03:02:44;;;;;;;;;11.00;10.00;;;;;;;;5039837;27;114076;-76
2021/11/05 03:05:10;;;;;;;;;16.00;8.00;;;;;;;;5040780;27;111753;-76
2021/11/05 03:07:35;;;;;;;;;9.00;8.00;;;;;;;;5040489;27;112061;-75
2021/11/05 03:10:01;;;;;;;;;10.75;10.00;;;;;;;;5039681;27;112426;-77
2021/11/05 03:12:26;;;;;;;;;10.00;10.00;;;;;;;;5040311;27;112013;-75
2021/11/05 03:14:51;;;;;;;;;10.00;8.00;;;;;;;;5042817;27;112116;-78
2021/11/05 03:17:17;;;;;;;;;8.00;8.00;;;;;;;;5040723;27;113006;-76
2021/11/05 03:19:43;;;;;;;;;8.00;8.00;;;;;;;;5040765;27;113647;-76
2021/11/05 03:22:08;;;;;;;;;8.00;5.00;;;;;;;;5040052;27;112448;-77
2021/11/05 03:24:34;;;;;;;;;9.50;5.00;;;;;;;;5043902;27;111991;-75
2021/11/05 03:26:59;;;;;;;;;4.25;4.25;;;;;;;;5044412;27;111828;-75
2021/11/05 03:29:24;;;;;;;;;12.25;8.50;;;;;;;;5042998;27;112488;-76
2021/11/05 03:31:50;;;;;;;;;6.00;5.00;;;;;;;;5044132;27;112041;-77
2021/11/05 03:34:15;;;;;;;;;5.50;4.25;;;;;;;;5043939;27;113206;-77
2021/11/05 03:36:41;;;;;;;;;8.25;7.50;;;;;;;;5046532;27;112831;-75
2021/11/05 03:39:06;;;;;;;;;8.50;8.25;;;;;;;;5043442;27;112505;-77
2021/11/05 03:41:32;;;;;;;;;7.25;5.00;;;;;;;;5042818;27;112947;-76
2021/11/05 03:43:57;;;;;;;;;7.00;7.00;;;;;;;;5044114;27;111873;-78
2021/11/05 03:46:22;;;;;;;;;7.25;6.00;;;;;;;;5044009;27;111848;-76
2021/11/05 03:48:47;;;;;;;;;7.75;5.00;;;;;;;;5042764;27;113778;-76
2021/11/05 03:51:13;;;;;;;;;5.50;5.00;;;;;;;;5044153;27;111904;-76
2021/11/05 03:53:39;;;;;;;;;5.00;5.00;;;;;;;;5043627;27;113118;-75
2021/11/05 03:56:05;;;;;;;;;10.00;4.75;;;;;;;;5043012;27;112488;-74
2021/11/05 03:58:30;;;;;;;;;5.00;5.00;;;;;;;;5047004;27;111912;-76
2021/11/05 04:00:55;;;;;;;;;7.00;5.00;;;;;;;;5042206;27;112467;-76
2021/11/05 04:03:21;;;;;;;;;9.50;6.00;;;;;;;;5043039;27;111768;-76
2021/11/05 04:05:46;;;;;;;;;9.75;7.50;;;;;;;;5043870;27;112875;-75
2021/11/05 04:08:12;;;;;;;;;8.00;8.00;;;;;;;;5042728;27;112325;-75
2021/11/05 04:10:37;;;;;;;;;7.00;7.00;;;;;;;;5043914;27;111647;-74
2021/11/05 04:13:03;;;;;;;;;12.50;9.50;;;;;;;;5043379;27;112966;-76
2021/11/05 04:15:28;;;;;;;;;17.00;8.00;;;;;;;;5042569;27;112416;-75
2021/11/05 04:17:54;;;;;;;;;15.50;10.00;;;;;;;;5042988;27;112003;-75
2021/11/05 04:20:19;;;;;;;;;7.00;4.00;;;;;;;;5045686;27;112463;-77
2021/11/05 04:22:45;;;;;;;;;7.00;7.00;;;;;;;;5042970;27;111659;-76
2021/11/05 04:25:10;;;;;;;;;8.50;7.00;;;;;;;;5043008;27;112233;-76
2021/11/05 04:27:36;;;;;;;;;8.00;8.00;;;;;;;;5042157;27;113178;-76
2021/11/05 04:30:02;;;;;;;;;7.75;7.75;;;;;;;;5043621;27;111883;-76
2021/11/05 04:32:27;;;;;;;;;8.00;7.00;;;;;;;;5043572;27;112249;-75
2021/11/05 04:34:52;;;;;;;;;11.50;7.75;;;;;;;;5041843;27;112415;-75
2021/11/05 04:37:18;;;;;;;;;10.25;8.00;;;;;;;;5042413;27;112228;-76
2021/11/05 04:39:43;;;;;;;;;10.50;9.75;;;;;;;;5043231;27;112087;-75
2021/11/05 04:42:09;;;;;;;;;11.00;10.00;;;;;;;;5045763;27;112929;-77
2021/11/05 04:44:34;;;;;;;;;12.50;10.75;;;;;;;;5042416;27;111910;-76
2021/11/05 04:46:59;;;;;;;;;18.33;12.33;;;;;;;;5041275;27;112397;-76
2021/11/05 04:49:24;;;;;;;;;11.50;7.50;;;;;;;;5041876;27;112053;-76
2021/11/05 04:51:50;;;;;;;;;14.50;10.00;;;;;;;;5023795;27;113031;-75
2021/11/05 04:54:15;;;;;;;;;9.50;8.00;;;;;;;;5041786;27;113907;-75
2021/11/05 04:56:41;;;;;;;;;6.00;6.00;;;;;;;;5043057;27;111842;-75
2021/11/05 04:59:06;;;;;;;;;5.00;5.00;;;;;;;;5024808;27;115094;-76
2021/11/05 05:01:32;;;;;;;;;6.33;6.33;;;;;;;;5045754;27;112501;-76
2021/11/05 05:03:57;;;;;;;;;13.00;6.50;;;;;;;;5042684;27;112507;-75
2021/11/05 05:06:22;;;;;;;;;5.00;5.00;;;;;;;;5041301;27;113524;-75
2021/11/05 05:08:48;;;;;;;;;4.50;3.50;;;;;;;;5042820;27;111800;-75
2021/11/05 05:11:13;;;;;;;;;6.50;2.00;;;;;;;;5042831;27;112126;-74
2021/11/05 05:13:39;;;;;;;;;1.00;1.00;;;;;;;;5041316;27;112339;-74
2021/11/05 05:16:04;;;;;;;;;4.50;4.25;;;;;;;;5041548;27;112025;-75
2021/11/05 05:18:30;;;;;;;;;5.00;5.00;;;;;;;;5042470;27;112095;-75
2021/11/05 05:20:55;;;;;;;;;6.00;5.00;;;;;;;;5041791;27;112346;-76
2021/11/05 05:23:21;;;;;;;;;7.50;5.00;;;;;;;;5046438;27;111802;-75
2021/11/05 05:25:46;;;;;;;;;4.00;2.00;;;;;;;;5041992;27;112373;-76
2021/11/05 05:28:11;;;;;;;;;2.00;2.00;;;;;;;;5042885;27;111937;-75
2021/11/05 05:30:37;;;;;;;;;4.25;3.50;;;;;;;;5042691;27;112419;-75
2021/11/05 05:33:02;;;;;;;;;7.25;4.00;;;;;;;;5041342;27;113531;-73
2021/11/05 05:35:27;;;;;;;;;5.50;5.50;;;;;;;;5041738;27;112188;-77
2021/11/05 05:37:53;;;;;;;;;2.00;2.00;;;;;;;;5041991;27;112309;-75
2021/11/05 05:40:19;;;;;;;;;7.67;5.67;;;;;;;;5040073;27;113537;-75
2021/11/05 05:42:45;;;;;;;;;6.50;5.00;;;;;;;;5042356;27;112997;-72
2021/11/05 05:45:11;;;;;;;;;5.00;5.00;;;;;;;;5044966;27;111839;-77
2021/11/05 05:47:37;;;;;;;;;10.00;5.50;;;;;;;;5041961;27;112052;-76
2021/11/05 05:50:06;;;;;;;;;15.33;10.00;;;;;;;;5042072;27;112258;-75
2021/11/05 05:52:31;;;;;;;;;2.00;2.00;;;;;;;;5040343;27;113623;-74
2021/11/05 05:54:56;;;;;;;;;6.00;4.00;;;;;;;;5042133;27;111722;-75
2021/11/05 05:57:21;;;;;;;;;9.50;8.00;;;;;;;;5042248;27;112568;-76
2021/11/05 05:59:47;;;;;;;;;7.00;7.00;;;;;;;;5040816;27;112338;-76
2021/11/05 06:02:12;;;;;;;;;6.50;5.00;;;;;;;;5041385;27;113182;-78
2021/11/05 06:04:38;;;;;;;;;4.00;4.00;;;;;;;;5041412;27;111987;-76
2021/11/05 06:07:03;;;;;;;;;4.75;4.00;;;;;;;;5043620;27;112385;-75
2021/11/05 06:09:29;;;;;;;;;6.50;6.50;;;;;;;;5041336;27;112007;-77
2021/11/05 06:11:54;;;;;;;;;5.50;5.50;;;;;;;;5040764;27;114327;-76
2021/11/05 06:14:19;;;;;;;;;4.25;4.00;;;;;;;;5041999;27;111718;-75
2021/11/05 06:16:44;;;;;;;;;6.75;5.50;;;;;;;;5042103;27;111963;-74
2021/11/05 06:19:10;;;;;;;;;4.25;4.25;;;;;;;;5040984;27;112585;-76
2021/11/05 06:21:35;;;;;;;;;7.75;7.75;;;;;;;;5042028;27;112117;-72
2021/11/05 06:24:00;;;;;;;;;3.00;2.50;;;;;;;;5041563;27;112217;-72
2021/11/05 06:26:26;;;;;;;;;6.00;4.25;;;;;;;;5040688;27;112729;-72
2021/11/05 06:28:51;;;;;;;;;4.25;4.25;;;;;;;;5022664;27;111991;-76
2021/11/05 06:31:17;;;;;;;;;5.00;5.00;;;;;;;;5039985;27;112459;-75
2021/11/05 06:33:42;;;;;;;;;2.00;2.00;;;;;;;;5040765;27;111771;-75
2021/11/05 06:36:08;;;;;;;;;5.00;3.50;;;;;;;;5022154;27;113749;-75
2021/11/05 06:38:33;;;;;;;;;8.00;5.00;;;;;;;;5039681;27;112382;-75
2021/11/05 06:40:59;;;;;;;;;7.00;5.00;;;;;;;;5040332;27;112128;-74
2021/11/05 06:43:24;;;;;;;;;3.50;2.00;;;;;;;;5040239;27;112410;-81
2021/11/05 06:45:50;;;;;;;;;7.75;6.75;;;;;;;;5039484;27;113034;-75
2021/11/05 06:48:15;;;;;;;;;4.00;4.00;;;;;;;;5040340;27;111857;-74
2021/11/05 06:50:42;;;;;;;;;8.50;4.75;;;;;;;;5043099;27;112284;-72
2021/11/05 06:53:08;;;;;;;;;3.00;3.00;;;;;;;;5041160;27;112242;-73
2021/11/05 06:55:33;;;;;;;;;4.00;4.00;;;;;;;;5040473;27;111846;-74
2021/11/05 06:57:59;;;;;;;;;6.50;5.00;;;;;;;;5040220;27;113410;-74
2021/11/05 07:00:24;;;;;;;;;5.50;5.50;;;;;;;;5059770;27;112288;-74
2021/11/05 07:02:50;;;;;;;;;2.00;2.00;;;;;;;;5044165;27;112006;-75
2021/11/05 07:05:15;;;;;;;;;4.50;4.00;;;;;;;;4994500;27;112696;-72
2021/11/05 07:07:41;;;;;;;;;3.50;3.50;;;;;;;;4988177;28;111874;-73
2021/11/05 07:10:07;;;;;;;;;2.00;2.00;;;;;;;;5006296;28;111731;-73
2021/11/05 07:12:32;;;;;;;;;7.25;4.00;;;;;;;;4939269;27;112517;-73
2021/11/05 07:14:58;;;;;;;;;5.00;5.00;;;;;;;;4977551;28;112310;-74
2021/11/05 07:17:23;;;;;;;;;11.00;5.00;;;;;;;;5021207;28;112451;-74
2021/11/05 07:19:49;;;;;;;;;4.00;1.25;;;;;;;;5023265;28;111886;-75
2021/11/05 07:22:14;;;;;;;;;5.50;5.50;;;;;;;;5022380;28;113868;-74
2021/11/05 07:24:39;;;;;;;;;6.00;6.00;;;;;;;;5022089;28;113021;-75
2021/11/05 07:27:05;;;;;;;;;11.00;7.00;;;;;;;;5022799;28;111755;-74
2021/11/05 07:29:31;;;;;;;;;4.75;4.00;;;;;;;;5022874;28;111955;-73
2021/11/05 07:31:58;;;;;;;;;4.50;4.50;;;;;;;;5025887;28;112802;-73
2021/11/05 07:34:24;;;;;;;;;8.50;6.50;;;;;;;;5000113;27;112011;-73
2021/11/05 07:36:50;;;;;;;;;10.00;6.00;;;;;;;;4961705;28;113560;-81
2021/11/05 07:39:15;;;;;;;;;11.50;7.00;;;;;;;;5004107;28;112248;-78
2021/11/05 07:41:40;;;;;;;;;10.00;8.25;;;;;;;;5022200;28;111850;-75
2021/11/05 07:44:06;;;;;;;;;8.00;5.00;;;;;;;;5021359;28;114639;-78
2021/11/05 07:46:31;;;;;;;;;12.00;8.00;;;;;;;;5022942;28;111724;-80
2021/11/05 07:48:56;;;;;;;;;4.50;4.00;;;;;;;;4970735;27;112031;-77
2021/11/05 07:51:22;;;;;;;;;7.00;7.00;;;;;;;;5008610;28;112158;-79
2021/11/05 07:53:47;;;;;;;;;8.25;8.00;;;;;;;;5027430;28;112032;-82
2021/11/05 07:56:12;;;;;;;;;10.00;7.75;;;;;;;;5021838;28;112631;-77
2021/11/05 07:58:38;;;;;;;;;8.00;7.00;;;;;;;;5022447;28;112402;-76
2021/11/05 08:01:03;;;;;;;;;5.50;5.50;;;;;;;;5007823;28;114063;-75
2021/11/05 08:03:28;;;;;;;;;8.75;8.25;;;;;;;;4999484;28;112647;-78
2021/11/05 08:05:54;;;;;;;;;9.25;8.75;;;;;;;;5000980;28;112523;-78
2021/11/05 08:08:19;;;;;;;;;8.25;6.00;;;;;;;;5002412;28;112497;-78
2021/11/05 08:10:45;;;;;;;;;11.50;7.00;;;;;;;;5000366;28;112491;-77
2021/11/05 08:13:11;;;;;;;;;11.25;7.75;;;;;;;;5001069;28;112068;-78
2021/11/05 08:15:36;;;;;;;;;10.50;6.50;;;;;;;;4987105;28;113167;-78
2021/11/05 08:18:02;;;;;;;;;6.50;4.75;;;;;;;;5002775;28;111711;-75
2021/11/05 08:20:27;;;;;;;;;8.50;7.75;;;;;;;;5002941;28;112275;-76
2021/11/05 08:22:53;;;;;;;;;7.00;5.50;;;;;;;;5001428;28;113473;-74
2021/11/05 08:25:19;;;;;;;;;9.25;7.75;;;;;;;;5002494;28;111740;-74
2021/11/05 08:27:45;;;;;;;;;8.25;7.00;;;;;;;;5002280;28;113078;-78
2021/11/05 08:30:17;;;;;;;;;5.00;5.00;;;;;;;;5000463;28;115614;-73
2021/11/05 08:32:43;;;;;;;;;9.00;7.00;;;;;;;;5001405;28;112374;-74
2021/11/05 08:35:08;;;;;;;;;8.50;8.00;;;;;;;;5001954;28;113436;-73
2021/11/05 08:37:34;;;;;;;;;6.50;6.50;;;;;;;;5004922;28;114922;-73
2021/11/05 08:39:59;;;;;;;;;8.75;7.00;;;;;;;;5002445;28;112456;-73
2021/11/05 08:42:25;;;;;;;;;8.00;7.00;;;;;;;;5001340;28;112495;-73
2021/11/05 08:44:50;;;;;;;;;7.00;5.00;;;;;;;;5002317;28;112649;-73
2021/11/05 08:47:15;;;;;;;;;6.50;6.50;;;;;;;;5002322;28;111849;-70
2021/11/05 08:49:41;;;;;;;;;8.75;7.00;;;;;;;;5000992;28;113132;-70
2021/11/05 08:52:07;;;;;;;;;8.00;5.00;;;;;;;;4998694;28;112172;-71
2021/11/05 08:54:32;;;;;;;;;7.00;7.00;;;;;;;;5001682;28;112009;-72
2021/11/05 08:56:57;;;;;;;;;7.75;7.50;;;;;;;;5000510;28;112394;-70
2021/11/05 08:59:23;;;;;;;;;10.25;10.00;;;;;;;;5005745;28;111872;-74
2021/11/05 09:01:49;;;;;;;;;10.00;10.00;;;;;;;;5000085;28;112645;-72
2021/11/05 09:04:16;;;;;;;;;10.50;10.00;;;;;;;;5001145;28;111997;-76
2021/11/05 09:06:41;;;;;;;;;12.50;9.50;;;;;;;;4982691;28;115474;-73
2021/11/05 09:09:07;;;;;;;;;12.00;10.00;;;;;;;;5005979;28;112617;-71
2021/11/05 09:11:32;;;;;;;;;11.00;10.00;;;;;;;;5020358;28;114006;-71
2021/11/05 09:13:58;;;;;;;;;11.25;10.25;;;;;;;;5021680;28;112252;-71
2021/11/05 09:16:25;;;;;;;;;9.00;8.00;;;;;;;;4997725;28;114555;-70
2021/11/05 09:18:51;;;;;;;;;9.00;7.50;;;;;;;;5008691;28;112463;-73
2021/11/05 09:21:16;;;;;;;;;11.25;10.00;;;;;;;;4999269;28;112400;-73
2021/11/05 09:23:41;;;;;;;;;12.25;11.00;;;;;;;;5000633;28;111873;-73
2021/11/05 09:26:08;;;;;;;;;8.00;8.00;;;;;;;;5000580;28;111959;-73
2021/11/05 09:28:33;;;;;;;;;15.25;10.25;;;;;;;;5002038;28;113678;-74
2021/11/05 09:30:59;;;;;;;;;10.50;8.00;;;;;;;;5016781;28;112022;-72
2021/11/05 09:33:25;;;;;;;;;7.75;7.50;;;;;;;;5021337;28;113094;-79
2021/11/05 09:35:50;;;;;;;;;7.50;6.25;;;;;;;;5020546;28;113554;-79
2021/11/05 09:38:16;;;;;;;;;7.50;6.75;;;;;;;;5021979;28;111753;-77
2021/11/05 09:40:41;;;;;;;;;7.25;7.00;;;;;;;;5024068;28;112489;-73
2021/11/05 09:43:06;;;;;;;;;8.00;6.25;;;;;;;;5021263;28;112263;-73
2021/11/05 09:45:32;;;;;;;;;7.75;7.00;;;;;;;;5020901;28;112314;-73
2021/11/05 09:47:59;;;;;;;;;3.00;3.00;;;;;;;;5020326;28;112649;-77
2021/11/05 09:50:24;;;;;;;;;7.00;6.00;;;;;;;;5020089;28;111941;-77
2021/11/05 09:52:50;;;;;;;;;8.00;6.00;;;;;;;;5020504;28;111957;-72
2021/11/05 09:55:16;;;;;;;;;7.75;5.75;;;;;;;;5019969;28;113626;-78
2021/11/05 09:57:41;;;;;;;;;6.50;6.00;;;;;;;;5021046;28;111840;-73
2021/11/05 10:00:08;;;;;;;;;7.00;7.00;;;;;;;;5002853;28;114713;-74
2021/11/05 10:02:33;;;;;;;;;8.50;8.00;;;;;;;;5023352;28;112748;-75
2021/11/05 10:05:00;;;;;;;;;10.00;7.00;;;;;;;;5002502;28;114656;-75
2021/11/05 10:07:26;;;;;;;;;12.50;11.75;;;;;;;;5012845;28;113692;-75
2021/11/05 10:09:53;;;;;;;;;11.50;11.50;;;;;;;;4991939;28;111919;-75
2021/11/05 10:12:20;;;;;;;;;12.50;11.75;;;;;;;;4981970;28;114642;-75
2021/11/05 10:14:52;;;;;;;;;13.00;12.00;;;;;;;;4999903;28;112549;-78
2021/11/05 10:17:17;;;;;;;;;13.00;13.00;;;;;;;;5000129;28;112071;-75
2021/11/05 10:19:51;;;;;;;;;20.25;16.00;;;;;;;;5006162;28;112394;-78
2021/11/05 10:22:33;;;;;;;;;16.00;15.00;;;;;;;;5009751;28;113546;-78
2021/11/05 10:25:17;;;;;;;;;13.75;13.75;;;;;;;;5011934;28;112209;-77
2021/11/05 10:27:42;;;;;;;;;13.75;11.75;;;;;;;;4987424;28;114238;-76
2021/11/05 10:30:08;;;;;;;;;10.00;10.00;;;;;;;;5003277;28;111988;-73
2021/11/05 10:32:34;;;;;;;;;12.00;10.50;;;;;;;;5007421;28;112103;-78
2021/11/05 10:35:09;;;;;;;;;12.75;11.50;;;;;;;;5007719;28;112696;-75
2021/11/05 10:37:36;;;;;;;;;15.50;12.00;;;;;;;;5008820;28;112301;-77
2021/11/05 10:40:03;;;;;;;;;7.25;3.50;;;;;;;;5007672;28;113406;-75
2021/11/05 10:42:33;;;;;;;;;9.00;6.50;;;;;;;;5006977;28;113767;-78
2021/11/05 10:45:18;;;;;;;;;11.00;10.00;;;;;;;;5008395;28;112387;-77
2021/11/05 10:47:52;;;;;;;;;9.00;9.00;;;;;;;;5010564;28;112494;-75
2021/11/05 10:50:19;;;;;;;;;13.75;10.25;;;;;;;;5000518;28;111873;-75
2021/11/05 10:52:57;;;;;;;;;8.50;8.00;;;;;;;;4999216;28;113090;-77
2021/11/05 10:55:22;;;;;;;;;8.25;7.00;;;;;;;;4999020;28;112500;-76
2021/11/05 10:57:48;;;;;;;;;4.00;4.00;;;;;;;;4981501;28;112019;-76
2021/11/05 11:00:20;;;;;;;;;0.25;0.25;;;;;;;;4999633;28;113502;-76
2021/11/05 11:02:45;;;;;;;;;2.00;1.25;;;;;;;;4999269;28;112554;-76
2021/11/05 11:05:32;;;;;;;;;1.00;1.00;;;;;;;;5000324;28;111804;-75
2021/11/05 11:07:59;;;;;;;;;0.00;0.00;;;;;;;;4982888;28;113508;-77
2021/11/05 11:10:33;;;;;;;;;0.25;0.00;;;;;;;;5003199;28;112038;-76
2021/11/05 11:12:58;;;;;;;;;0.75;0.75;;;;;;;;5000795;28;112392;-76
2021/11/05 11:15:31;;;;;;;;;2.00;1.75;;;;;;;;4999548;28;112295;-75
2021/11/05 11:17:57;;;;;;;;;2.00;2.00;;;;;;;;4999831;28;111858;-76
2021/11/05 11:20:33;;;;;;;;;1.00;1.00;;;;;;;;5000548;28;112432;-75
2021/11/05 11:22:58;;;;;;;;;1.00;0.00;;;;;;;;4999382;28;112383;-73
2021/11/05 11:25:23;;;;;;;;;1.00;1.00;;;;;;;;5000512;28;112079;-77
2021/11/05 11:27:49;;;;;;;;;0.00;0.00;;;;;;;;5000810;28;112244;-76
2021/11/05 11:30:15;;;;;;;;;0.00;0.00;;;;;;;;5002872;28;113586;-75
2021/11/05 11:32:41;;;;;;;;;0.00;0.00;;;;;;;;4999982;28;112111;-79
2021/11/05 11:35:06;;;;;;;;;0.00;0.00;;;;;;;;4999019;28;112464;-73
2021/11/05 11:37:34;;;;;;;;;0.75;0.75;;;;;;;;4999402;28;111893;-74
2021/11/05 11:39:59;;;;;;;;;0.00;0.00;;;;;;;;5000680;28;112107;-74
2021/11/05 11:42:25;;;;;;;;;1.00;0.50;;;;;;;;4999093;28;112344;-74
2021/11/05 11:44:50;;;;;;;;;1.25;1.00;;;;;;;;5001847;28;111727;-81
2021/11/05 11:47:16;;;;;;;;;1.00;0.25;;;;;;;;4985384;28;114814;-74
2021/11/05 11:49:48;;;;;;;;;0.00;0.00;;;;;;;;5002646;28;112304;-74
2021/11/05 11:52:13;;;;;;;;;0.75;0.25;;;;;;;;5006593;28;112616;-75
2021/11/05 11:54:39;;;;;;;;;1.50;1.00;;;;;;;;5002827;28;112539;-73
2021/11/05 11:57:24;;;;;;;;;0.00;0.00;;;;;;;;4985498;28;111960;-72
2021/11/05 12:00:08;;;;;;;;;1.75;1.00;;;;;;;;5003562;28;112306;-70
2021/11/05 12:02:41;;;;;;;;;0.75;0.75;;;;;;;;5001905;28;112604;-71
2021/11/05 12:05:23;;;;;;;;;0.00;0.00;;;;;;;;5002428;28;111978;-70
2021/11/05 12:08:07;;;;;;;;;5.25;5.25;;;;;;;;4999880;28;113405;-71
2021/11/05 12:10:32;;;;;;;;;1.50;1.50;;;;;;;;5001602;28;113293;-73
2021/11/05 12:12:58;;;;;;;;;1.00;0.00;;;;;;;;4984427;28;112082;-75
2021/11/05 12:15:23;;;;;;;;;0.00;0.00;;;;;;;;5005210;28;112017;-74
2021/11/05 12:17:48;;;;;;;;;0.50;0.50;;;;;;;;5020277;28;112238;-73
2021/11/05 12:20:33;;;;;;;;;1.75;0.75;;;;;;;;5022940;28;111989;-80
2021/11/05 12:23:13;;;;;;;;;1.75;0.75;;;;;;;;5022990;28;112541;-80
2021/11/05 12:25:41;;;;;;;;;0.00;0.00;;;;;;;;5025862;28;112198;-78
2021/11/05 12:28:17;;;;;;;;;1.75;0.25;;;;;;;;5005388;28;115234;-76
2021/11/05 12:30:44;;;;;;;;;0.00;0.00;;;;;;;;5024796;28;112536;-81
2021/11/05 12:33:30;;;;;;;;;0.00;0.00;;;;;;;;5028486;28;111796;-73
2021/11/05 12:35:56;;;;;;;;;0.00;0.00;;;;;;;;5010478;28;113070;-81
2021/11/05 12:38:22;;;;;;;;;0.00;0.00;;;;;;;;5011066;28;112455;-77
2021/11/05 12:40:56;;;;;;;;;1.25;0.00;;;;;;;;5019735;28;112282;-78
2021/11/05 12:43:21;;;;;;;;;0.50;0.00;;;;;;;;5022275;28;112461;-81
2021/11/05 12:45:53;;;;;;;;;1.00;0.00;;;;;;;;5022629;28;111677;-77
2021/11/05 12:48:40;;;;;;;;;1.25;0.00;;;;;;;;5022751;28;112104;-81
2021/11/05 12:51:07;;;;;;;;;0.00;0.00;;;;;;;;5022026;28;114668;-78
2021/11/05 12:53:32;;;;;;;;;0.00;0.00;;;;;;;;5012153;28;111893;-78
2021/11/05 12:55:58;;;;;;;;;0.00;0.00;;;;;;;;5012706;27;112254;-78
2021/11/05 12:58:27;;;;;;;;;0.75;0.00;;;;;;;;5007267;28;112499;-79
2021/11/05 13:00:52;;;;;;;;;0.00;0.00;;;;;;;;5005930;28;112012;-77
2021/11/05 13:03:18;;;;;;;;;1.25;0.00;;;;;;;;5000664;28;112546;-77
2021/11/05 13:05:57;;;;;;;;;0.00;0.00;;;;;;;;5001535;28;112717;-82
2021/11/05 13:08:29;;;;;;;;;0.00;0.00;;;;;;;;5012437;28;112215;-81
2021/11/05 13:11:01;;;;;;;;;3.50;0.00;;;;;;;;5007721;28;115236;-82
2021/11/05 13:13:27;;;;;;;;;1.50;0.25;;;;;;;;5010591;28;112038;-82
2021/11/05 13:15:52;;;;;;;;;0.00;0.00;;;;;;;;5011905;28;112383;-83
2021/11/05 13:18:17;;;;;;;;;1.00;0.75;;;;;;;;5008921;28;112332;-83
2021/11/05 13:20:44;;;;;;;;;0.00;0.00;;;;;;;;5014617;28;112100;-83
2021/11/05 13:23:12;;;;;;;;;2.00;0.25;;;;;;;;5009492;28;112868;-76
2021/11/05 13:25:42;;;;;;;;;0.00;0.00;;;;;;;;5015404;28;111907;-75
2021/11/05 13:28:15;;;;;;;;;0.00;0.00;;;;;;;;5001014;28;113392;-76
2021/11/05 13:30:45;;;;;;;;;0.00;0.00;;;;;;;;5000889;28;112626;-74
2021/11/05 13:33:11;;;;;;;;;0.00;0.00;;;;;;;;5010957;28;111878;-75
2021/11/05 13:35:40;;;;;;;;;1.75;0.25;;;;;;;;4988886;28;113891;-75
2021/11/05 13:38:06;;;;;;;;;1.00;0.00;;;;;;;;5008353;28;113040;-73
2021/11/05 13:40:32;;;;;;;;;0.00;0.00;;;;;;;;4983243;28;111804;-76
2021/11/05 13:43:06;;;;;;;;;0.00;0.00;;;;;;;;5004010;28;112112;-75
2021/11/05 13:45:32;;;;;;;;;1.00;0.00;;;;;;;;5001478;28;112385;-76
2021/11/05 13:47:57;;;;;;;;;0.00;0.00;;;;;;;;5001064;28;111967;-78
2021/11/05 13:50:22;;;;;;;;;1.00;0.00;;;;;;;;4999991;28;112379;-76
2021/11/05 13:52:55;;;;;;;;;0.25;0.25;;;;;;;;5000470;28;112360;-76
2021/11/05 13:55:28;;;;;;;;;0.00;0.00;;;;;;;;5000776;28;111977;-74
2021/11/05 13:57:54;;;;;;;;;0.75;0.00;;;;;;;;5000018;28;112578;-74
2021/11/05 14:00:19;;;;;;;;;1.00;0.25;;;;;;;;5000664;28;112655;-76
2021/11/05 14:02:47;;;;;;;;;0.00;0.00;;;;;;;;4982570;28;114344;-73
2021/11/05 14:05:12;;;;;;;;;0.50;0.50;;;;;;;;5003325;28;113696;-76
2021/11/05 14:07:37;;;;;;;;;1.00;1.00;;;;;;;;5000392;28;112226;-74
